createdAt,value
2017-12-11T00:01:50.306Z,9.25
2017-12-11T00:04:18.600Z,9.22
2017-12-11T00:06:46.863Z,9.22
2017-12-11T00:09:15.147Z,9.23
2017-12-11T00:11:43.415Z,9.22
2017-12-11T00:14:11.760Z,9.15
2017-12-11T00:16:40.026Z,9.15
2017-12-11T00:19:08.326Z,9.24
2017-12-11T00:21:36.748Z,9.26
2017-12-11T00:24:05.103Z,9.26
2017-12-11T00:26:33.372Z,9.31
2017-12-11T00:29:01.696Z,9.32
2017-12-11T00:31:29.960Z,9.35
2017-12-11T00:33:58.269Z,9.27
2017-12-11T00:36:26.538Z,9.18
2017-12-11T00:38:55.124Z,9.24
2017-12-11T00:41:23.391Z,9.25
2017-12-11T00:43:51.679Z,9.31
2017-12-11T00:46:19.960Z,9.30
2017-12-11T00:48:48.230Z,9.23
2017-12-11T00:51:16.532Z,9.18
2017-12-11T00:53:44.784Z,9.22
2017-12-11T00:56:13.086Z,9.21
2017-12-11T00:58:41.364Z,9.25
2017-12-11T01:01:09.642Z,9.21
2017-12-11T01:03:37.911Z,9.17
2017-12-11T01:06:06.190Z,9.21
2017-12-11T01:08:34.447Z,9.28
2017-12-11T01:11:02.752Z,9.29
2017-12-11T01:13:31.060Z,9.29
2017-12-11T01:15:59.330Z,9.22
2017-12-11T01:18:27.608Z,9.23
2017-12-11T01:20:56.332Z,9.24
2017-12-11T01:23:25.292Z,9.20
2017-12-11T01:25:53.536Z,9.18
2017-12-11T01:28:21.842Z,9.21
2017-12-11T01:30:50.120Z,9.22
2017-12-11T01:33:18.404Z,9.14
2017-12-11T01:35:46.685Z,9.21
2017-12-11T01:38:14.947Z,9.18
2017-12-11T01:40:43.242Z,9.19
2017-12-11T01:43:11.495Z,9.15
2017-12-11T01:45:40.078Z,9.17
2017-12-11T01:48:08.348Z,9.20
2017-12-11T01:50:36.599Z,9.15
2017-12-11T01:53:05.067Z,9.15
2017-12-11T01:55:33.376Z,9.13
2017-12-11T01:58:01.655Z,9.16
2017-12-11T02:00:29.951Z,9.13
2017-12-11T02:02:58.195Z,9.11
2017-12-11T02:05:26.479Z,9.15
2017-12-11T02:07:54.760Z,9.23
2017-12-11T02:10:23.015Z,9.22
2017-12-11T02:12:51.311Z,9.29
2017-12-11T02:15:19.558Z,9.28
2017-12-11T02:17:48.009Z,9.27
2017-12-11T02:20:16.279Z,9.31
2017-12-11T02:22:44.590Z,9.32
2017-12-11T02:25:14.305Z,9.31
2017-12-11T02:27:43.395Z,9.37
2017-12-11T02:30:11.704Z,9.43
2017-12-11T02:32:39.965Z,9.44
2017-12-11T02:35:08.252Z,9.43
2017-12-11T02:37:36.495Z,9.33
2017-12-11T02:40:05.289Z,9.31
2017-12-11T02:42:33.546Z,9.30
2017-12-11T02:45:01.844Z,9.29
2017-12-11T02:47:30.096Z,9.37
2017-12-11T02:49:58.601Z,9.37
2017-12-11T02:52:27.012Z,9.45
2017-12-11T02:54:55.274Z,9.47
2017-12-11T02:57:23.552Z,9.46
2017-12-11T02:59:51.832Z,9.50
2017-12-11T03:02:20.145Z,9.55
2017-12-11T03:04:48.421Z,9.53
2017-12-11T03:07:16.740Z,9.44
2017-12-11T03:09:45.007Z,9.40
2017-12-11T03:12:13.318Z,9.53
2017-12-11T03:14:41.570Z,9.54
2017-12-11T03:17:09.839Z,9.45
2017-12-11T03:19:38.148Z,9.41
2017-12-11T03:22:06.428Z,9.38
2017-12-11T03:24:34.716Z,9.50
2017-12-11T03:27:02.964Z,9.57
2017-12-11T03:29:31.264Z,9.62
2017-12-11T03:31:59.563Z,9.61
2017-12-11T03:34:27.849Z,9.59
2017-12-11T03:36:56.114Z,9.55
2017-12-11T03:39:24.400Z,9.43
2017-12-11T03:41:52.697Z,9.50
2017-12-11T03:44:20.952Z,9.51
2017-12-11T03:46:49.244Z,9.55
2017-12-11T03:49:17.509Z,9.54
2017-12-11T03:51:45.843Z,9.56
2017-12-11T03:54:14.092Z,9.52
2017-12-11T03:56:42.377Z,9.43
2017-12-11T03:59:10.636Z,9.46
2017-12-11T04:01:39.519Z,9.46
2017-12-11T04:04:07.775Z,9.53
2017-12-11T04:06:36.071Z,9.46
2017-12-11T04:09:04.994Z,9.59
2017-12-11T04:11:33.319Z,9.54
2017-12-11T04:14:01.635Z,9.50
2017-12-11T04:16:29.895Z,9.41
2017-12-11T04:18:58.188Z,9.39
2017-12-11T04:21:26.439Z,9.42
2017-12-11T04:23:54.724Z,9.43
2017-12-11T04:26:22.997Z,9.43
2017-12-11T04:28:51.273Z,9.42
2017-12-11T04:31:19.528Z,9.41
2017-12-11T04:33:47.792Z,9.37
2017-12-11T04:36:16.062Z,9.34
2017-12-11T04:38:44.354Z,9.32
2017-12-11T04:41:12.654Z,9.32
2017-12-11T04:43:40.929Z,9.37
2017-12-11T04:46:09.211Z,9.32
2017-12-11T04:48:37.487Z,9.30
2017-12-11T04:51:05.756Z,9.32
2017-12-11T04:53:34.018Z,9.36
2017-12-11T04:56:02.311Z,9.37
2017-12-11T04:58:30.871Z,9.37
2017-12-11T05:00:59.757Z,9.33
2017-12-11T05:03:28.032Z,9.33
2017-12-11T05:05:56.306Z,9.32
2017-12-11T05:08:24.578Z,9.30
2017-12-11T05:10:52.864Z,9.20
2017-12-11T05:13:21.143Z,9.15
2017-12-11T05:15:49.447Z,9.18
2017-12-11T05:18:17.721Z,9.13
2017-12-11T05:20:45.974Z,9.11
2017-12-11T05:23:14.263Z,9.13
2017-12-11T05:25:42.550Z,9.09
2017-12-11T05:28:10.857Z,9.12
2017-12-11T05:30:39.165Z,9.12
2017-12-11T05:33:07.383Z,9.16
2017-12-11T05:35:35.665Z,9.21
2017-12-11T05:38:03.946Z,9.15
2017-12-11T05:40:32.201Z,9.10
2017-12-11T05:43:00.477Z,9.06
2017-12-11T05:45:28.771Z,9.09
2017-12-11T05:47:57.035Z,9.10
2017-12-11T05:50:25.357Z,9.15
2017-12-11T05:52:53.628Z,9.13
2017-12-11T05:55:21.980Z,9.16
2017-12-11T05:57:50.239Z,9.12
2017-12-11T06:00:18.585Z,9.05
2017-12-11T06:02:47.170Z,9.05
2017-12-11T06:05:15.471Z,9.08
2017-12-11T06:07:43.747Z,9.08
2017-12-11T06:10:12.023Z,9.05
2017-12-11T06:12:40.299Z,9.11
2017-12-11T06:15:08.577Z,9.13
2017-12-11T06:17:36.918Z,9.15
2017-12-11T06:20:05.141Z,9.14
2017-12-11T06:22:33.439Z,9.17
2017-12-11T06:25:01.752Z,9.15
2017-12-11T06:27:30.042Z,9.19
2017-12-11T06:29:58.339Z,9.20
2017-12-11T06:32:26.624Z,9.21
2017-12-11T06:34:54.900Z,9.26
2017-12-11T06:37:23.167Z,9.25
2017-12-11T06:39:51.476Z,9.12
2017-12-11T06:42:19.782Z,9.12
2017-12-11T06:44:48.107Z,9.12
2017-12-11T06:47:16.373Z,9.13
2017-12-11T06:49:44.657Z,9.04
2017-12-11T06:52:12.959Z,8.97
2017-12-11T06:54:41.227Z,8.91
2017-12-11T06:57:09.495Z,8.91
2017-12-11T06:59:37.787Z,8.84
2017-12-11T07:02:06.063Z,8.93
2017-12-11T07:04:34.473Z,8.97
2017-12-11T07:07:02.759Z,8.86
2017-12-11T07:09:32.012Z,8.85
2017-12-11T07:12:00.326Z,8.92
2017-12-11T07:14:28.556Z,8.86
2017-12-11T07:16:56.863Z,8.91
2017-12-11T07:19:25.113Z,8.92
2017-12-11T07:21:53.404Z,8.91
2017-12-11T07:24:21.666Z,8.88
2017-12-11T07:26:49.948Z,8.87
2017-12-11T07:29:18.272Z,8.82
2017-12-11T07:31:46.521Z,8.75
2017-12-11T07:34:14.842Z,8.82
2017-12-11T07:36:43.082Z,8.77
2017-12-11T07:39:11.517Z,8.74
2017-12-11T07:41:40.610Z,8.73
2017-12-11T07:44:08.918Z,8.71
2017-12-11T07:46:37.202Z,8.82
2017-12-11T07:49:05.487Z,8.84
2017-12-11T07:51:34.118Z,8.77
2017-12-11T07:54:02.640Z,8.78
2017-12-11T07:56:30.862Z,8.77
2017-12-11T07:58:59.166Z,8.80
2017-12-11T08:01:27.417Z,8.87
2017-12-11T08:03:55.696Z,8.89
2017-12-11T08:06:23.983Z,8.93
2017-12-11T08:08:52.254Z,8.95
2017-12-11T08:11:20.529Z,8.93
2017-12-11T08:13:48.799Z,8.84
2017-12-11T08:16:17.120Z,8.88
2017-12-11T08:18:45.381Z,8.93
2017-12-11T08:21:14.064Z,9.03
2017-12-11T08:23:42.317Z,9.05
2017-12-11T08:26:10.594Z,9.09
2017-12-11T08:28:38.981Z,9.11
2017-12-11T08:31:07.315Z,9.14
2017-12-11T08:33:35.608Z,9.22
2017-12-11T08:36:04.273Z,9.23
2017-12-11T08:38:32.548Z,9.35
2017-12-11T08:41:00.834Z,9.32
2017-12-11T08:43:30.077Z,9.40
2017-12-11T08:45:58.302Z,9.35
2017-12-11T08:48:26.612Z,9.40
2017-12-11T08:50:54.902Z,9.44
2017-12-11T08:53:23.165Z,9.44
2017-12-11T08:55:51.440Z,9.37
2017-12-11T08:58:19.731Z,9.39
2017-12-11T09:00:48.003Z,9.34
2017-12-11T09:03:16.275Z,9.42
2017-12-11T09:05:44.757Z,9.41
2017-12-11T09:08:13.015Z,9.43
2017-12-11T09:10:41.410Z,9.50
2017-12-11T09:13:09.796Z,9.43
2017-12-11T09:15:38.061Z,9.41
2017-12-11T09:18:06.343Z,9.36
2017-12-11T09:20:35.083Z,9.35
2017-12-11T09:23:03.403Z,9.43
2017-12-11T09:25:31.678Z,9.44
2017-12-11T09:27:59.966Z,9.47
2017-12-11T09:30:28.275Z,9.50
2017-12-11T09:32:56.608Z,9.46
2017-12-11T09:35:24.997Z,9.49
2017-12-11T09:37:53.276Z,9.45
2017-12-11T09:40:21.663Z,9.46
2017-12-11T09:42:50.187Z,9.51
2017-12-11T09:45:18.502Z,9.50
2017-12-11T09:47:46.843Z,9.53
2017-12-11T09:50:15.158Z,9.59
2017-12-11T09:52:43.449Z,9.64
2017-12-11T09:55:11.715Z,9.70
2017-12-11T09:57:39.987Z,9.73
2017-12-11T10:00:08.335Z,9.71
2017-12-11T10:02:36.710Z,9.82
2017-12-11T10:05:05.024Z,9.85
2017-12-11T10:07:33.303Z,9.90
2017-12-11T10:10:01.579Z,9.94
2017-12-11T10:12:29.908Z,9.94
2017-12-11T10:14:58.682Z,9.96
2017-12-11T10:17:26.920Z,9.91
2017-12-11T10:19:55.201Z,9.94
2017-12-11T10:22:23.466Z,9.98
2017-12-11T10:24:51.827Z,10.05
2017-12-11T10:27:20.127Z,10.08
2017-12-11T10:29:48.478Z,10.11
2017-12-11T10:32:16.759Z,10.17
2017-12-11T10:34:45.039Z,10.17
2017-12-11T10:37:13.315Z,10.29
2017-12-11T10:39:41.588Z,10.37
2017-12-11T10:42:09.864Z,10.43
2017-12-11T10:44:38.159Z,10.47
2017-12-11T10:47:06.460Z,10.49
2017-12-11T10:49:34.728Z,10.53
2017-12-11T10:52:03.020Z,10.40
2017-12-11T10:54:31.320Z,10.41
2017-12-11T10:56:59.632Z,10.41
2017-12-11T10:59:27.924Z,10.41
2017-12-11T11:01:56.188Z,10.35
2017-12-11T11:04:24.494Z,10.44
2017-12-11T11:06:52.764Z,10.39
2017-12-11T11:09:21.070Z,10.41
2017-12-11T11:11:49.374Z,10.40
2017-12-11T11:14:18.032Z,10.40
2017-12-11T11:16:46.327Z,10.62
2017-12-11T11:19:14.664Z,10.66
2017-12-11T11:21:43.818Z,10.63
2017-12-11T11:24:12.597Z,10.71
2017-12-11T11:26:40.877Z,10.72
2017-12-11T11:29:10.028Z,10.67
2017-12-11T11:31:38.350Z,10.67
2017-12-11T11:34:06.624Z,10.64
2017-12-11T11:36:34.935Z,10.62
2017-12-11T11:39:03.217Z,10.66
2017-12-11T11:41:31.844Z,10.63
2017-12-11T11:44:00.119Z,10.64
2017-12-11T11:46:28.442Z,10.77
2017-12-11T11:48:56.744Z,10.63
2017-12-11T11:51:25.994Z,10.62
2017-12-11T11:53:54.373Z,10.53
2017-12-11T11:56:22.695Z,10.59
2017-12-11T11:58:51.001Z,10.60
2017-12-11T12:01:19.315Z,10.56
2017-12-11T12:03:47.678Z,10.60
2017-12-11T12:06:16.792Z,10.69
2017-12-11T12:08:45.214Z,10.65
2017-12-11T12:11:13.598Z,10.65
2017-12-11T12:13:41.959Z,10.62
2017-12-11T12:16:10.264Z,10.49
2017-12-11T12:18:38.711Z,10.56
2017-12-11T12:21:07.008Z,10.53
2017-12-11T12:23:35.298Z,10.49
2017-12-11T12:26:04.211Z,10.51
2017-12-11T12:28:32.527Z,10.56
2017-12-11T12:31:00.815Z,10.54
2017-12-11T12:33:29.107Z,10.61
2017-12-11T12:35:57.499Z,10.58
2017-12-11T12:38:25.774Z,10.71
2017-12-11T12:40:54.152Z,10.73
2017-12-11T12:43:22.430Z,10.79
2017-12-11T12:45:50.736Z,10.75
2017-12-11T12:48:19.025Z,10.78
2017-12-11T12:50:47.343Z,10.72
2017-12-11T12:53:15.629Z,10.78
2017-12-11T12:55:43.972Z,10.82
2017-12-11T12:58:12.235Z,10.83
2017-12-11T13:00:40.595Z,10.88
2017-12-11T13:03:09.251Z,10.89
2017-12-11T13:05:37.526Z,10.94
2017-12-11T13:08:05.823Z,10.97
2017-12-11T13:10:34.330Z,11.00
2017-12-11T13:13:02.730Z,10.94
2017-12-11T13:15:31.008Z,10.99
2017-12-11T13:17:59.376Z,11.02
2017-12-11T13:20:27.665Z,11.08
2017-12-11T13:22:55.966Z,11.08
2017-12-11T13:25:24.323Z,11.03
2017-12-11T13:27:52.666Z,11.02
2017-12-11T13:30:20.949Z,10.94
2017-12-11T13:32:49.868Z,10.79
2017-12-11T13:35:18.083Z,10.76
2017-12-11T13:37:46.380Z,10.74
2017-12-11T13:40:14.721Z,10.57
2017-12-11T13:42:42.993Z,10.62
2017-12-11T13:45:11.289Z,10.61
2017-12-11T13:47:39.571Z,10.52
2017-12-11T13:50:08.250Z,10.49
2017-12-11T13:52:36.448Z,10.49
2017-12-11T13:55:05.118Z,10.35
2017-12-11T13:57:33.402Z,10.42
2017-12-11T14:00:01.683Z,10.34
2017-12-11T14:02:29.999Z,10.28
2017-12-11T14:04:58.317Z,10.31
2017-12-11T14:07:26.603Z,10.34
2017-12-11T14:09:55.687Z,10.46
2017-12-11T14:12:24.080Z,10.34
2017-12-11T14:14:52.362Z,10.37
2017-12-11T14:17:20.676Z,10.40
2017-12-11T14:19:49.549Z,10.49
2017-12-11T14:22:18.995Z,10.45
2017-12-11T14:24:47.331Z,10.45
2017-12-11T14:27:15.609Z,10.44
2017-12-11T14:29:43.925Z,10.42
2017-12-11T14:32:12.397Z,10.39
2017-12-11T14:34:40.684Z,10.40
2017-12-11T14:37:09.145Z,10.43
2017-12-11T14:39:38.056Z,10.48
2017-12-11T14:42:06.379Z,10.52
2017-12-11T14:44:35.575Z,10.40
2017-12-11T14:47:04.815Z,10.32
2017-12-11T14:49:34.010Z,10.42
2017-12-11T14:52:02.301Z,10.23
2017-12-11T14:54:30.754Z,10.44
2017-12-11T14:56:59.011Z,10.36
2017-12-11T14:59:27.334Z,10.27
2017-12-11T15:01:55.659Z,10.36
2017-12-11T15:04:24.134Z,10.31
2017-12-11T15:06:53.018Z,10.43
2017-12-11T15:09:22.064Z,10.36
2017-12-11T15:11:50.424Z,10.38
2017-12-11T15:14:18.763Z,10.34
2017-12-11T15:16:47.025Z,10.26
2017-12-11T15:19:15.307Z,10.31
2017-12-11T15:21:43.590Z,10.33
2017-12-11T15:24:11.857Z,10.31
2017-12-11T15:26:40.137Z,10.29
2017-12-11T15:31:43.022Z,10.16
2017-12-11T15:34:12.673Z,10.26
2017-12-11T15:36:40.967Z,10.28
2017-12-11T15:39:10.125Z,10.29
2017-12-11T15:41:40.129Z,10.24
2017-12-11T15:44:11.297Z,10.19
2017-12-11T15:46:39.603Z,10.20
2017-12-11T15:49:08.037Z,10.14
2017-12-11T15:51:36.347Z,10.12
2017-12-11T15:54:04.704Z,10.13
2017-12-11T15:56:33.082Z,10.22
2017-12-11T15:59:01.355Z,10.21
2017-12-11T16:01:29.727Z,10.12
2017-12-11T16:03:57.998Z,10.15
2017-12-11T16:06:26.272Z,10.04
2017-12-11T16:08:54.687Z,10.04
2017-12-11T16:11:22.964Z,10.27
2017-12-11T16:13:51.409Z,10.21
2017-12-11T16:16:20.660Z,10.06
2017-12-11T16:18:49.023Z,10.04
2017-12-11T16:21:17.957Z,10.17
2017-12-11T16:23:46.278Z,10.05
2017-12-11T16:26:14.550Z,9.94
2017-12-11T16:28:42.844Z,9.92
2017-12-11T16:31:11.567Z,9.94
2017-12-11T16:33:39.971Z,10.06
2017-12-11T16:36:08.263Z,10.07
2017-12-11T16:38:37.554Z,9.87
2017-12-11T16:41:07.158Z,9.86
2017-12-11T16:43:35.600Z,9.83
2017-12-11T16:46:03.958Z,9.80
2017-12-11T16:48:32.273Z,9.83
2017-12-11T16:51:00.564Z,9.81
2017-12-11T16:53:28.849Z,9.77
2017-12-11T16:55:57.187Z,9.98
2017-12-11T16:58:25.601Z,9.91
2017-12-11T17:00:53.977Z,9.80
2017-12-11T17:03:22.284Z,9.83
2017-12-11T17:05:50.589Z,9.80
2017-12-11T17:08:18.875Z,9.76
2017-12-11T17:10:47.192Z,9.79
2017-12-11T17:13:15.465Z,9.79
2017-12-11T17:15:43.757Z,9.64
2017-12-11T17:18:12.090Z,9.84
2017-12-11T17:20:40.339Z,9.76
2017-12-11T17:23:09.172Z,9.76
2017-12-11T17:25:38.405Z,9.71
2017-12-11T17:28:06.700Z,9.67
2017-12-11T17:30:35.850Z,9.64
2017-12-11T17:33:04.128Z,9.61
2017-12-11T17:35:32.494Z,9.48
2017-12-11T17:38:00.766Z,9.61
2017-12-11T17:40:29.041Z,9.60
2017-12-11T17:42:57.318Z,9.64
2017-12-11T17:45:25.612Z,9.63
2017-12-11T17:47:53.904Z,9.65
2017-12-11T17:50:22.452Z,9.57
2017-12-11T17:52:50.724Z,9.61
2017-12-11T17:55:19.060Z,9.60
2017-12-11T17:57:47.380Z,9.67
2017-12-11T18:00:15.667Z,9.66
2017-12-11T18:02:44.207Z,9.67
2017-12-11T18:05:12.525Z,9.64
2017-12-11T18:07:40.801Z,9.62
2017-12-11T18:10:10.056Z,9.63
2017-12-11T18:12:39.209Z,9.57
2017-12-11T18:15:07.490Z,9.67
2017-12-11T18:17:35.840Z,9.75
2017-12-11T18:20:04.177Z,9.66
2017-12-11T18:22:32.551Z,9.63
2017-12-11T18:25:01.256Z,9.66
2017-12-11T18:27:29.611Z,9.59
2017-12-11T18:29:57.860Z,9.64
2017-12-11T18:32:26.766Z,9.64
2017-12-11T18:34:55.054Z,9.59
2017-12-11T18:37:27.422Z,9.61
2017-12-11T18:39:56.028Z,9.57
2017-12-11T18:42:25.116Z,9.61
2017-12-11T18:44:53.569Z,9.64
2017-12-11T18:47:21.838Z,9.50
2017-12-11T18:49:51.945Z,9.41
2017-12-11T18:52:21.468Z,9.51
2017-12-11T18:54:50.462Z,9.49
2017-12-11T18:57:19.689Z,9.43
2017-12-11T18:59:48.149Z,9.47
2017-12-11T19:02:17.439Z,9.49
2017-12-11T19:04:45.734Z,9.45
2017-12-11T19:07:14.061Z,9.23
2017-12-11T19:09:42.461Z,9.35
2017-12-11T19:12:10.728Z,9.37
2017-12-11T19:14:39.109Z,9.25
2017-12-11T19:17:08.306Z,9.26
2017-12-11T19:19:37.709Z,9.40
2017-12-11T19:22:05.993Z,9.27
2017-12-11T19:24:34.276Z,9.23
2017-12-11T19:27:04.284Z,9.25
2017-12-11T19:29:34.193Z,9.37
2017-12-11T19:32:02.468Z,9.50
2017-12-11T19:34:30.737Z,9.41
2017-12-11T19:36:59.029Z,9.34
2017-12-11T19:39:27.298Z,9.36
2017-12-11T19:41:57.619Z,9.38
2017-12-11T19:44:25.880Z,9.29
2017-12-11T19:46:54.492Z,9.34
2017-12-11T19:49:22.840Z,9.39
2017-12-11T19:51:51.137Z,9.37
2017-12-11T19:54:19.416Z,9.34
2017-12-11T19:56:47.693Z,9.33
2017-12-11T19:59:15.978Z,9.42
2017-12-11T20:01:44.275Z,9.46
2017-12-11T20:04:12.615Z,9.40
2017-12-11T20:06:41.660Z,9.49
2017-12-11T20:09:11.274Z,9.42
2017-12-11T20:11:40.083Z,9.36
2017-12-11T20:14:10.040Z,9.40
2017-12-11T20:16:38.349Z,9.34
2017-12-11T20:19:08.037Z,9.39
2017-12-11T20:21:36.285Z,9.38
2017-12-11T20:24:04.728Z,9.36
2017-12-11T20:26:32.952Z,9.36
2017-12-11T20:29:01.240Z,9.35
2017-12-11T20:31:32.784Z,9.37
2017-12-11T20:34:01.073Z,9.32
2017-12-11T20:36:29.332Z,9.51
2017-12-11T20:38:57.589Z,9.41
2017-12-11T20:41:25.900Z,9.51
2017-12-11T20:43:54.149Z,9.51
2017-12-11T20:46:22.425Z,9.57
2017-12-11T20:48:51.511Z,9.52
2017-12-11T20:51:19.796Z,9.50
2017-12-11T20:53:48.076Z,9.42
2017-12-11T20:56:16.357Z,9.19
2017-12-11T20:58:44.648Z,9.12
2017-12-11T21:01:12.914Z,8.97
2017-12-11T21:03:41.194Z,8.92
2017-12-11T21:06:10.195Z,8.88
2017-12-11T21:08:38.455Z,8.72
2017-12-11T21:11:06.848Z,8.65
2017-12-11T21:13:35.104Z,8.59
2017-12-11T21:16:03.487Z,8.53
2017-12-11T21:18:31.794Z,8.51
2017-12-11T21:21:00.113Z,8.52
2017-12-11T21:23:28.421Z,8.49
2017-12-11T21:25:56.715Z,8.46
2017-12-11T21:28:25.136Z,8.42
2017-12-11T21:30:53.692Z,8.40
2017-12-11T21:33:22.039Z,8.50
2017-12-11T21:35:50.473Z,8.45
2017-12-11T21:38:18.793Z,8.49
2017-12-11T21:40:47.085Z,8.46
2017-12-11T21:43:15.354Z,8.49
2017-12-11T21:45:44.334Z,8.49
2017-12-11T21:48:12.637Z,8.54
2017-12-11T21:50:40.992Z,8.56
2017-12-11T21:53:09.231Z,8.53
2017-12-11T21:55:37.534Z,8.57
2017-12-11T21:58:05.815Z,8.54
2017-12-11T22:00:34.092Z,8.51
2017-12-11T22:03:02.532Z,8.52
2017-12-11T22:05:30.855Z,8.50
2017-12-11T22:07:59.663Z,8.49
2017-12-11T22:10:27.934Z,8.63
2017-12-11T22:12:56.211Z,8.59
2017-12-11T22:15:24.533Z,8.58
2017-12-11T22:17:52.792Z,8.61
2017-12-11T22:20:21.065Z,8.59
2017-12-11T22:22:49.348Z,8.53
2017-12-11T22:25:17.670Z,8.49
2017-12-11T22:27:45.946Z,8.28
2017-12-11T22:32:41.623Z,8.22
2017-12-11T22:37:37.307Z,8.18
2017-12-11T22:40:05.573Z,8.09
2017-12-11T22:42:33.864Z,8.10
2017-12-11T22:45:02.158Z,8.08
2017-12-11T22:47:30.626Z,7.94
2017-12-11T22:49:59.263Z,7.89
2017-12-11T22:52:28.408Z,7.88
2017-12-11T22:54:56.691Z,7.76
2017-12-11T22:57:24.967Z,7.71
2017-12-11T22:59:53.299Z,7.70
2017-12-11T23:02:22.223Z,7.72
2017-12-11T23:04:50.526Z,7.79
2017-12-11T23:07:18.793Z,7.81
2017-12-11T23:09:47.887Z,7.77
2017-12-11T23:12:16.152Z,7.81
2017-12-11T23:14:44.746Z,7.84
2017-12-11T23:17:13.475Z,7.75
2017-12-11T23:19:43.144Z,7.74
2017-12-11T23:22:11.452Z,7.79
2017-12-11T23:24:39.695Z,7.88
2017-12-11T23:27:07.951Z,7.83
2017-12-11T23:29:36.227Z,7.88
2017-12-11T23:32:04.816Z,7.90
2017-12-11T23:34:33.107Z,7.90
2017-12-11T23:37:01.423Z,7.88
2017-12-11T23:39:30.356Z,7.96
2017-12-11T23:41:58.639Z,8.00
2017-12-11T23:44:26.908Z,7.92
2017-12-11T23:46:55.186Z,7.82
2017-12-11T23:49:23.466Z,7.74
2017-12-11T23:51:52.165Z,7.94
2017-12-11T23:54:32.116Z,7.84
2017-12-11T23:57:01.114Z,7.66
2017-12-11T23:59:29.385Z,7.73
